sensor_id;sensor_type;location;lat;lon;timestamp;temperature;humidity
26707;DHT22;14319;49.422;10.934;2022-12-18T00:01:29;-8.90;66.20
26707;DHT22;14319;49.422;10.934;2022-12-18T00:03:34;-8.80;65.70
26707;DHT22;14319;49.422;10.934;2022-12-18T00:05:35;-8.70;65.00
26707;DHT22;14319;49.422;10.934;2022-12-18T00:07:36;-8.80;64.30
26707;DHT22;14319;49.422;10.934;2022-12-18T00:09:37;-8.90;63.90
26707;DHT22;14319;49.422;10.934;2022-12-18T00:11:37;-9.00;64.50
26707;DHT22;14319;49.422;10.934;2022-12-18T00:13:38;-9.00;64.10
26707;DHT22;14319;49.422;10.934;2022-12-18T00:15:39;-8.90;63.50
26707;DHT22;14319;49.422;10.934;2022-12-18T00:17:39;-8.90;63.40
26707;DHT22;14319;49.422;10.934;2022-12-18T00:19:40;-9.00;64.10
26707;DHT22;14319;49.422;10.934;2022-12-18T00:21:41;-8.90;63.60
26707;DHT22;14319;49.422;10.934;2022-12-18T00:23:43;-8.90;63.20
26707;DHT22;14319;49.422;10.934;2022-12-18T00:25:44;-8.90;62.60
26707;DHT22;14319;49.422;10.934;2022-12-18T00:27:44;-8.90;62.10
26707;DHT22;14319;49.422;10.934;2022-12-18T00:29:45;-8.90;62.30
26707;DHT22;14319;49.422;10.934;2022-12-18T00:31:45;-9.00;62.10
26707;DHT22;14319;49.422;10.934;2022-12-18T00:33:46;-9.00;61.90
26707;DHT22;14319;49.422;10.934;2022-12-18T00:35:47;-9.00;62.00
26707;DHT22;14319;49.422;10.934;2022-12-18T00:37:47;-9.10;62.70
26707;DHT22;14319;49.422;10.934;2022-12-18T00:39:48;-9.10;63.30
26707;DHT22;14319;49.422;10.934;2022-12-18T00:41:49;-9.10;62.90
26707;DHT22;14319;49.422;10.934;2022-12-18T00:44:09;-9.10;62.60
26707;DHT22;14319;49.422;10.934;2022-12-18T00:46:10;-9.20;61.70
26707;DHT22;14319;49.422;10.934;2022-12-18T00:48:11;-9.20;62.00
26707;DHT22;14319;49.422;10.934;2022-12-18T00:50:11;-9.30;62.20
26707;DHT22;14319;49.422;10.934;2022-12-18T00:52:12;-9.30;62.60
26707;DHT22;14319;49.422;10.934;2022-12-18T00:54:12;-9.30;64.10
26707;DHT22;14319;49.422;10.934;2022-12-18T00:56:13;-9.30;64.80
26707;DHT22;14319;49.422;10.934;2022-12-18T00:58:15;-9.20;65.50
26707;DHT22;14319;49.422;10.934;2022-12-18T01:00:16;-9.10;65.80
26707;DHT22;14319;49.422;10.934;2022-12-18T01:02:16;-9.10;66.80
26707;DHT22;14319;49.422;10.934;2022-12-18T01:04:17;-9.00;66.70
26707;DHT22;14319;49.422;10.934;2022-12-18T01:06:19;-9.00;66.80
26707;DHT22;14319;49.422;10.934;2022-12-18T01:08:20;-8.90;66.80
26707;DHT22;14319;49.422;10.934;2022-12-18T01:10:21;-8.90;64.90
26707;DHT22;14319;49.422;10.934;2022-12-18T01:12:22;-9.50;62.20
26707;DHT22;14319;49.422;10.934;2022-12-18T01:14:24;-9.50;64.20
26707;DHT22;14319;49.422;10.934;2022-12-18T01:16:25;-9.40;64.30
26707;DHT22;14319;49.422;10.934;2022-12-18T01:18:25;-9.30;63.90
26707;DHT22;14319;49.422;10.934;2022-12-18T01:20:26;-9.30;63.10
26707;DHT22;14319;49.422;10.934;2022-12-18T01:22:26;-9.20;63.20
26707;DHT22;14319;49.422;10.934;2022-12-18T01:24:27;-9.20;62.80
26707;DHT22;14319;49.422;10.934;2022-12-18T01:26:27;-9.20;62.30
26707;DHT22;14319;49.422;10.934;2022-12-18T01:28:29;-9.20;62.00
26707;DHT22;14319;49.422;10.934;2022-12-18T01:30:30;-9.20;61.80
26707;DHT22;14319;49.422;10.934;2022-12-18T01:32:31;-9.30;62.40
26707;DHT22;14319;49.422;10.934;2022-12-18T01:34:31;-9.30;62.30
26707;DHT22;14319;49.422;10.934;2022-12-18T01:36:33;-9.30;62.60
26707;DHT22;14319;49.422;10.934;2022-12-18T01:38:33;-9.30;62.60
26707;DHT22;14319;49.422;10.934;2022-12-18T01:40:34;-9.20;62.60
26707;DHT22;14319;49.422;10.934;2022-12-18T01:42:35;-9.20;63.40
26707;DHT22;14319;49.422;10.934;2022-12-18T01:46:46;-9.20;64.10
26707;DHT22;14319;49.422;10.934;2022-12-18T01:48:47;-9.30;64.60
26707;DHT22;14319;49.422;10.934;2022-12-18T01:50:49;-9.50;65.70
26707;DHT22;14319;49.422;10.934;2022-12-18T01:52:52;-9.50;66.60
26707;DHT22;14319;49.422;10.934;2022-12-18T01:54:53;-9.50;68.10
26707;DHT22;14319;49.422;10.934;2022-12-18T01:56:53;-9.40;68.90
26707;DHT22;14319;49.422;10.934;2022-12-18T01:59:04;-9.30;69.60
26707;DHT22;14319;49.422;10.934;2022-12-18T02:01:06;-9.30;69.00
26707;DHT22;14319;49.422;10.934;2022-12-18T02:03:06;-9.20;69.90
26707;DHT22;14319;49.422;10.934;2022-12-18T02:05:07;-9.10;69.90
26707;DHT22;14319;49.422;10.934;2022-12-18T02:07:28;-8.90;70.30
26707;DHT22;14319;49.422;10.934;2022-12-18T02:09:33;-8.90;70.80
26707;DHT22;14319;49.422;10.934;2022-12-18T02:15:59;-8.60;70.10
26707;DHT22;14319;49.422;10.934;2022-12-18T02:18:02;-8.50;70.10
26707;DHT22;14319;49.422;10.934;2022-12-18T02:20:20;-8.40;69.10
26707;DHT22;14319;49.422;10.934;2022-12-18T02:24:35;-8.20;67.10
26707;DHT22;14319;49.422;10.934;2022-12-18T02:26:53;-8.20;66.50
26707;DHT22;14319;49.422;10.934;2022-12-18T02:29:02;-8.30;67.10
26707;DHT22;14319;49.422;10.934;2022-12-18T02:31:05;-8.20;67.80
26707;DHT22;14319;49.422;10.934;2022-12-18T02:33:06;-8.10;67.00
26707;DHT22;14319;49.422;10.934;2022-12-18T02:35:09;-8.10;65.80
26707;DHT22;14319;49.422;10.934;2022-12-18T02:37:12;-8.00;64.50
26707;DHT22;14319;49.422;10.934;2022-12-18T02:39:14;-8.00;64.40
26707;DHT22;14319;49.422;10.934;2022-12-18T02:41:26;-8.00;64.60
26707;DHT22;14319;49.422;10.934;2022-12-18T02:43:27;-8.00;64.30
26707;DHT22;14319;49.422;10.934;2022-12-18T02:45:30;-8.10;63.30
26707;DHT22;14319;49.422;10.934;2022-12-18T02:47:35;-8.20;63.70
26707;DHT22;14319;49.422;10.934;2022-12-18T02:54:20;-8.10;65.10
26707;DHT22;14319;49.422;10.934;2022-12-18T02:56:23;-9.00;63.90
26707;DHT22;14319;49.422;10.934;2022-12-18T03:00:45;-9.50;66.30
26707;DHT22;14319;49.422;10.934;2022-12-18T03:04:49;-9.50;69.10
26707;DHT22;14319;49.422;10.934;2022-12-18T03:06:55;-9.30;69.00
26707;DHT22;14319;49.422;10.934;2022-12-18T03:08:59;-9.00;69.40
26707;DHT22;14319;49.422;10.934;2022-12-18T03:11:03;-8.80;68.60
26707;DHT22;14319;49.422;10.934;2022-12-18T03:13:12;-8.50;68.60
26707;DHT22;14319;49.422;10.934;2022-12-18T03:17:17;-8.30;68.30
26707;DHT22;14319;49.422;10.934;2022-12-18T03:19:21;-8.20;68.90
26707;DHT22;14319;49.422;10.934;2022-12-18T03:21:35;-8.00;68.80
26707;DHT22;14319;49.422;10.934;2022-12-18T03:23:40;-8.00;68.10
26707;DHT22;14319;49.422;10.934;2022-12-18T03:25:42;-7.90;68.20
26707;DHT22;14319;49.422;10.934;2022-12-18T03:27:46;-7.80;68.10
26707;DHT22;14319;49.422;10.934;2022-12-18T03:29:49;-7.70;67.70
26707;DHT22;14319;49.422;10.934;2022-12-18T03:31:57;-7.70;67.00
26707;DHT22;14319;49.422;10.934;2022-12-18T03:34:02;-8.00;66.50
26707;DHT22;14319;49.422;10.934;2022-12-18T03:36:13;-7.90;66.80
26707;DHT22;14319;49.422;10.934;2022-12-18T03:38:14;-7.90;68.30
26707;DHT22;14319;49.422;10.934;2022-12-18T03:40:20;-7.80;68.40
26707;DHT22;14319;49.422;10.934;2022-12-18T03:42:32;-7.70;69.50
26707;DHT22;14319;49.422;10.934;2022-12-18T03:44:43;-7.60;69.40
26707;DHT22;14319;49.422;10.934;2022-12-18T03:46:52;-7.40;69.40
26707;DHT22;14319;49.422;10.934;2022-12-18T03:49:18;-7.30;69.70
26707;DHT22;14319;49.422;10.934;2022-12-18T03:51:22;-7.30;70.20
26707;DHT22;14319;49.422;10.934;2022-12-18T03:55:27;-7.30;72.70
26707;DHT22;14319;49.422;10.934;2022-12-18T03:57:33;-7.20;73.40
26707;DHT22;14319;49.422;10.934;2022-12-18T03:59:36;-7.10;74.00
26707;DHT22;14319;49.422;10.934;2022-12-18T04:01:39;-6.90;73.50
26707;DHT22;14319;49.422;10.934;2022-12-18T04:03:40;-6.80;73.80
26707;DHT22;14319;49.422;10.934;2022-12-18T04:05:41;-6.70;73.40
26707;DHT22;14319;49.422;10.934;2022-12-18T04:07:44;-6.50;72.80
26707;DHT22;14319;49.422;10.934;2022-12-18T04:09:48;-6.50;72.40
26707;DHT22;14319;49.422;10.934;2022-12-18T04:11:49;-6.40;72.50
26707;DHT22;14319;49.422;10.934;2022-12-18T04:13:50;-6.40;72.40
26707;DHT22;14319;49.422;10.934;2022-12-18T04:15:56;-6.60;69.30
26707;DHT22;14319;49.422;10.934;2022-12-18T04:17:58;-6.50;70.30
26707;DHT22;14319;49.422;10.934;2022-12-18T04:20:05;-6.50;70.20
26707;DHT22;14319;49.422;10.934;2022-12-18T04:22:06;-6.40;70.10
26707;DHT22;14319;49.422;10.934;2022-12-18T04:24:13;-6.60;70.30
26707;DHT22;14319;49.422;10.934;2022-12-18T04:26:20;-6.50;71.80
26707;DHT22;14319;49.422;10.934;2022-12-18T04:28:37;-6.50;73.20
26707;DHT22;14319;49.422;10.934;2022-12-18T04:30:37;-6.40;73.90
26707;DHT22;14319;49.422;10.934;2022-12-18T04:32:39;-6.30;74.20
26707;DHT22;14319;49.422;10.934;2022-12-18T04:34:39;-6.20;74.30
26707;DHT22;14319;49.422;10.934;2022-12-18T04:36:40;-6.10;73.90
26707;DHT22;14319;49.422;10.934;2022-12-18T04:38:41;-6.00;73.40
26707;DHT22;14319;49.422;10.934;2022-12-18T04:40:46;-5.90;73.30
26707;DHT22;14319;49.422;10.934;2022-12-18T04:42:54;-5.90;73.80
26707;DHT22;14319;49.422;10.934;2022-12-18T04:44:55;-6.00;73.70
26707;DHT22;14319;49.422;10.934;2022-12-18T04:46:56;-6.00;74.30
26707;DHT22;14319;49.422;10.934;2022-12-18T04:48:57;-5.80;74.20
26707;DHT22;14319;49.422;10.934;2022-12-18T04:50:58;-5.70;74.30
26707;DHT22;14319;49.422;10.934;2022-12-18T04:52:58;-5.70;74.50
26707;DHT22;14319;49.422;10.934;2022-12-18T04:54:59;-5.60;74.60
26707;DHT22;14319;49.422;10.934;2022-12-18T04:56:59;-5.60;74.90
26707;DHT22;14319;49.422;10.934;2022-12-18T04:59:00;-5.40;76.00
26707;DHT22;14319;49.422;10.934;2022-12-18T05:01:01;-5.40;75.30
26707;DHT22;14319;49.422;10.934;2022-12-18T05:03:03;-5.40;75.60
26707;DHT22;14319;49.422;10.934;2022-12-18T05:05:04;-5.30;75.80
26707;DHT22;14319;49.422;10.934;2022-12-18T05:07:05;-5.30;75.70
26707;DHT22;14319;49.422;10.934;2022-12-18T05:09:05;-5.30;75.70
26707;DHT22;14319;49.422;10.934;2022-12-18T05:11:07;-5.20;75.80
26707;DHT22;14319;49.422;10.934;2022-12-18T05:13:08;-5.20;75.60
26707;DHT22;14319;49.422;10.934;2022-12-18T05:15:08;-5.20;75.70
26707;DHT22;14319;49.422;10.934;2022-12-18T05:17:09;-5.10;76.00
26707;DHT22;14319;49.422;10.934;2022-12-18T05:19:09;-5.20;75.90
26707;DHT22;14319;49.422;10.934;2022-12-18T05:21:10;-5.10;76.70
26707;DHT22;14319;49.422;10.934;2022-12-18T05:23:11;-5.10;76.30
26707;DHT22;14319;49.422;10.934;2022-12-18T05:25:14;-5.00;76.20
26707;DHT22;14319;49.422;10.934;2022-12-18T05:27:15;-5.00;76.10
26707;DHT22;14319;49.422;10.934;2022-12-18T05:29:15;-5.00;76.00
26707;DHT22;14319;49.422;10.934;2022-12-18T05:31:16;-4.90;76.20
26707;DHT22;14319;49.422;10.934;2022-12-18T05:33:17;-4.90;76.20
26707;DHT22;14319;49.422;10.934;2022-12-18T05:35:18;-4.80;76.60
26707;DHT22;14319;49.422;10.934;2022-12-18T05:37:18;-4.80;76.80
26707;DHT22;14319;49.422;10.934;2022-12-18T05:39:19;-4.80;76.80
26707;DHT22;14319;49.422;10.934;2022-12-18T05:41:19;-4.70;77.00
26707;DHT22;14319;49.422;10.934;2022-12-18T05:43:20;-4.70;77.20
26707;DHT22;14319;49.422;10.934;2022-12-18T05:45:24;-4.70;77.40
26707;DHT22;14319;49.422;10.934;2022-12-18T05:47:26;-4.70;77.60
26707;DHT22;14319;49.422;10.934;2022-12-18T05:49:26;-4.60;77.50
26707;DHT22;14319;49.422;10.934;2022-12-18T05:51:27;-4.60;77.80
26707;DHT22;14319;49.422;10.934;2022-12-18T05:53:27;-4.60;78.30
26707;DHT22;14319;49.422;10.934;2022-12-18T05:55:28;-4.60;78.20
26707;DHT22;14319;49.422;10.934;2022-12-18T05:57:28;-4.50;78.20
26707;DHT22;14319;49.422;10.934;2022-12-18T05:59:29;-4.50;78.30
26707;DHT22;14319;49.422;10.934;2022-12-18T06:01:30;-4.40;78.20
26707;DHT22;14319;49.422;10.934;2022-12-18T06:03:30;-4.30;78.00
26707;DHT22;14319;49.422;10.934;2022-12-18T06:05:34;-4.30;78.30
26707;DHT22;14319;49.422;10.934;2022-12-18T06:07:35;-4.30;78.30
26707;DHT22;14319;49.422;10.934;2022-12-18T06:09:35;-4.20;78.40
26707;DHT22;14319;49.422;10.934;2022-12-18T06:11:36;-4.20;78.30
26707;DHT22;14319;49.422;10.934;2022-12-18T06:13:37;-4.20;78.50
26707;DHT22;14319;49.422;10.934;2022-12-18T06:15:38;-4.20;78.50
26707;DHT22;14319;49.422;10.934;2022-12-18T06:17:39;-4.10;79.00
26707;DHT22;14319;49.422;10.934;2022-12-18T06:19:39;-4.10;78.90
26707;DHT22;14319;49.422;10.934;2022-12-18T06:21:40;-4.10;79.10
26707;DHT22;14319;49.422;10.934;2022-12-18T06:23:40;-4.10;79.20
26707;DHT22;14319;49.422;10.934;2022-12-18T06:25:41;-4.00;79.10
26707;DHT22;14319;49.422;10.934;2022-12-18T06:27:41;-4.00;79.10
26707;DHT22;14319;49.422;10.934;2022-12-18T06:29:42;-4.00;79.10
26707;DHT22;14319;49.422;10.934;2022-12-18T06:31:42;-3.90;79.50
26707;DHT22;14319;49.422;10.934;2022-12-18T06:33:43;-3.90;79.40
26707;DHT22;14319;49.422;10.934;2022-12-18T06:35:43;-3.90;79.30
26707;DHT22;14319;49.422;10.934;2022-12-18T06:37:44;-3.80;79.20
26707;DHT22;14319;49.422;10.934;2022-12-18T06:39:44;-3.80;79.30
26707;DHT22;14319;49.422;10.934;2022-12-18T06:41:45;-3.80;79.40
26707;DHT22;14319;49.422;10.934;2022-12-18T06:43:45;-3.80;79.50
26707;DHT22;14319;49.422;10.934;2022-12-18T06:45:46;-3.70;79.60
26707;DHT22;14319;49.422;10.934;2022-12-18T06:47:52;-3.70;79.50
26707;DHT22;14319;49.422;10.934;2022-12-18T06:49:53;-3.70;79.30
26707;DHT22;14319;49.422;10.934;2022-12-18T06:51:54;-3.70;79.50
26707;DHT22;14319;49.422;10.934;2022-12-18T06:53:54;-3.60;79.60
26707;DHT22;14319;49.422;10.934;2022-12-18T06:56:05;-3.70;79.20
26707;DHT22;14319;49.422;10.934;2022-12-18T06:58:06;-3.70;79.60
26707;DHT22;14319;49.422;10.934;2022-12-18T07:00:07;-3.70;79.60
26707;DHT22;14319;49.422;10.934;2022-12-18T07:02:10;-3.70;79.10
26707;DHT22;14319;49.422;10.934;2022-12-18T07:04:10;-3.60;80.50
26707;DHT22;14319;49.422;10.934;2022-12-18T07:06:15;-3.60;79.40
26707;DHT22;14319;49.422;10.934;2022-12-18T07:08:16;-3.60;79.60
26707;DHT22;14319;49.422;10.934;2022-12-18T07:10:16;-3.60;79.40
26707;DHT22;14319;49.422;10.934;2022-12-18T07:12:17;-3.60;79.30
26707;DHT22;14319;49.422;10.934;2022-12-18T07:14:17;-3.60;79.50
26707;DHT22;14319;49.422;10.934;2022-12-18T07:16:18;-3.60;79.70
26707;DHT22;14319;49.422;10.934;2022-12-18T07:18:19;-3.60;79.40
26707;DHT22;14319;49.422;10.934;2022-12-18T07:20:20;-3.70;79.70
26707;DHT22;14319;49.422;10.934;2022-12-18T07:22:20;-3.70;79.50
26707;DHT22;14319;49.422;10.934;2022-12-18T07:24:21;-3.70;79.80
26707;DHT22;14319;49.422;10.934;2022-12-18T07:26:21;-3.70;79.60
26707;DHT22;14319;49.422;10.934;2022-12-18T07:28:22;-3.70;79.50
26707;DHT22;14319;49.422;10.934;2022-12-18T07:30:22;-3.70;79.80
26707;DHT22;14319;49.422;10.934;2022-12-18T07:32:23;-3.60;79.50
26707;DHT22;14319;49.422;10.934;2022-12-18T07:34:23;-3.60;79.70
26707;DHT22;14319;49.422;10.934;2022-12-18T07:36:24;-3.60;80.10
26707;DHT22;14319;49.422;10.934;2022-12-18T07:38:24;-3.60;79.10
26707;DHT22;14319;49.422;10.934;2022-12-18T07:40:25;-3.60;79.70
26707;DHT22;14319;49.422;10.934;2022-12-18T07:42:25;-3.50;79.20
26707;DHT22;14319;49.422;10.934;2022-12-18T07:44:32;-3.50;79.40
26707;DHT22;14319;49.422;10.934;2022-12-18T07:46:32;-3.40;79.60
26707;DHT22;14319;49.422;10.934;2022-12-18T07:48:33;-3.50;79.50
26707;DHT22;14319;49.422;10.934;2022-12-18T07:50:33;-3.50;79.60
26707;DHT22;14319;49.422;10.934;2022-12-18T07:52:34;-3.40;79.40
26707;DHT22;14319;49.422;10.934;2022-12-18T07:54:34;-3.40;79.00
26707;DHT22;14319;49.422;10.934;2022-12-18T07:56:35;-3.40;78.50
26707;DHT22;14319;49.422;10.934;2022-12-18T07:58:36;-3.40;78.40
26707;DHT22;14319;49.422;10.934;2022-12-18T08:00:36;-3.40;79.00
26707;DHT22;14319;49.422;10.934;2022-12-18T08:02:37;-3.40;79.20
26707;DHT22;14319;49.422;10.934;2022-12-18T08:04:37;-3.30;79.60
26707;DHT22;14319;49.422;10.934;2022-12-18T08:06:38;-3.30;79.10
26707;DHT22;14319;49.422;10.934;2022-12-18T08:08:38;-3.20;79.00
26707;DHT22;14319;49.422;10.934;2022-12-18T08:10:40;-3.20;79.50
26707;DHT22;14319;49.422;10.934;2022-12-18T08:12:41;-3.20;79.50
26707;DHT22;14319;49.422;10.934;2022-12-18T08:14:42;-3.10;79.40
26707;DHT22;14319;49.422;10.934;2022-12-18T08:16:42;-3.10;79.10
26707;DHT22;14319;49.422;10.934;2022-12-18T08:18:43;-3.00;79.20
26707;DHT22;14319;49.422;10.934;2022-12-18T08:20:43;-3.00;79.30
26707;DHT22;14319;49.422;10.934;2022-12-18T08:22:44;-2.90;78.80
26707;DHT22;14319;49.422;10.934;2022-12-18T08:24:44;-2.90;78.70
26707;DHT22;14319;49.422;10.934;2022-12-18T08:26:45;-2.80;78.50
26707;DHT22;14319;49.422;10.934;2022-12-18T08:28:45;-2.80;78.10
26707;DHT22;14319;49.422;10.934;2022-12-18T08:30:46;-2.80;78.50
26707;DHT22;14319;49.422;10.934;2022-12-18T08:32:46;-2.70;78.50
26707;DHT22;14319;49.422;10.934;2022-12-18T08:34:49;-2.60;78.10
26707;DHT22;14319;49.422;10.934;2022-12-18T08:36:50;-2.60;77.90
26707;DHT22;14319;49.422;10.934;2022-12-18T08:38:50;-2.60;78.50
26707;DHT22;14319;49.422;10.934;2022-12-18T08:41:01;-2.60;78.10
26707;DHT22;14319;49.422;10.934;2022-12-18T08:43:01;-2.60;77.20
26707;DHT22;14319;49.422;10.934;2022-12-18T08:45:20;-2.50;77.90
26707;DHT22;14319;49.422;10.934;2022-12-18T08:47:21;-2.40;77.70
26707;DHT22;14319;49.422;10.934;2022-12-18T08:49:21;-2.40;77.00
26707;DHT22;14319;49.422;10.934;2022-12-18T08:51:22;-2.40;77.40
26707;DHT22;14319;49.422;10.934;2022-12-18T08:53:22;-2.40;77.30
26707;DHT22;14319;49.422;10.934;2022-12-18T08:55:24;-2.40;76.80
26707;DHT22;14319;49.422;10.934;2022-12-18T08:57:25;-2.40;76.40
26707;DHT22;14319;49.422;10.934;2022-12-18T08:59:25;-2.40;76.90
26707;DHT22;14319;49.422;10.934;2022-12-18T09:01:26;-2.40;76.50
26707;DHT22;14319;49.422;10.934;2022-12-18T09:03:27;-2.40;76.40
26707;DHT22;14319;49.422;10.934;2022-12-18T09:05:27;-2.50;76.90
26707;DHT22;14319;49.422;10.934;2022-12-18T09:07:28;-2.40;77.30
26707;DHT22;14319;49.422;10.934;2022-12-18T09:09:28;-2.60;77.70
26707;DHT22;14319;49.422;10.934;2022-12-18T09:11:29;-2.30;77.90
26707;DHT22;14319;49.422;10.934;2022-12-18T09:13:29;-2.20;77.80
26707;DHT22;14319;49.422;10.934;2022-12-18T09:15:30;-2.20;77.90
26707;DHT22;14319;49.422;10.934;2022-12-18T09:17:31;-2.10;77.30
26707;DHT22;14319;49.422;10.934;2022-12-18T09:19:31;-2.10;77.10
26707;DHT22;14319;49.422;10.934;2022-12-18T09:21:33;-2.10;76.70
26707;DHT22;14319;49.422;10.934;2022-12-18T09:23:34;-2.10;77.00
26707;DHT22;14319;49.422;10.934;2022-12-18T09:25:34;-2.10;76.60
26707;DHT22;14319;49.422;10.934;2022-12-18T09:27:36;-2.00;76.50
26707;DHT22;14319;49.422;10.934;2022-12-18T09:29:36;-2.00;76.50
26707;DHT22;14319;49.422;10.934;2022-12-18T09:31:37;-2.00;77.50
26707;DHT22;14319;49.422;10.934;2022-12-18T09:33:38;-2.00;77.00
26707;DHT22;14319;49.422;10.934;2022-12-18T09:35:39;-1.90;76.90
26707;DHT22;14319;49.422;10.934;2022-12-18T09:37:40;-1.80;76.70
26707;DHT22;14319;49.422;10.934;2022-12-18T09:39:42;-1.80;75.70
26707;DHT22;14319;49.422;10.934;2022-12-18T09:41:46;-1.80;76.10
26707;DHT22;14319;49.422;10.934;2022-12-18T09:43:49;-1.80;76.50
26707;DHT22;14319;49.422;10.934;2022-12-18T09:45:51;-1.90;76.40
26707;DHT22;14319;49.422;10.934;2022-12-18T09:47:53;-1.90;76.60
26707;DHT22;14319;49.422;10.934;2022-12-18T09:49:56;-1.80;76.80
26707;DHT22;14319;49.422;10.934;2022-12-18T09:54:21;-1.70;76.70
26707;DHT22;14319;49.422;10.934;2022-12-18T09:56:23;-1.70;75.60
26707;DHT22;14319;49.422;10.934;2022-12-18T09:58:35;-1.70;76.90
26707;DHT22;14319;49.422;10.934;2022-12-18T10:00:37;-1.60;77.40
26707;DHT22;14319;49.422;10.934;2022-12-18T10:02:38;-1.50;76.20
26707;DHT22;14319;49.422;10.934;2022-12-18T10:04:38;-1.60;76.50
26707;DHT22;14319;49.422;10.934;2022-12-18T10:06:42;-1.50;76.20
26707;DHT22;14319;49.422;10.934;2022-12-18T10:10:58;-1.40;76.00
26707;DHT22;14319;49.422;10.934;2022-12-18T10:13:09;-1.40;75.90
26707;DHT22;14319;49.422;10.934;2022-12-18T10:17:41;-1.30;75.50
26707;DHT22;14319;49.422;10.934;2022-12-18T10:19:47;-1.30;76.10
26707;DHT22;14319;49.422;10.934;2022-12-18T10:21:58;-1.20;77.00
26707;DHT22;14319;49.422;10.934;2022-12-18T10:26:18;-1.00;75.60
26707;DHT22;14319;49.422;10.934;2022-12-18T10:28:19;-1.10;74.90
26707;DHT22;14319;49.422;10.934;2022-12-18T10:30:21;-1.20;75.00
26707;DHT22;14319;49.422;10.934;2022-12-18T10:32:25;-1.20;75.10
26707;DHT22;14319;49.422;10.934;2022-12-18T10:34:26;-1.20;75.90
26707;DHT22;14319;49.422;10.934;2022-12-18T10:36:27;-1.10;75.50
26707;DHT22;14319;49.422;10.934;2022-12-18T10:38:28;-1.10;75.20
26707;DHT22;14319;49.422;10.934;2022-12-18T10:40:29;-1.10;74.70
26707;DHT22;14319;49.422;10.934;2022-12-18T10:42:30;-1.10;73.70
26707;DHT22;14319;49.422;10.934;2022-12-18T10:44:30;-1.00;74.10
26707;DHT22;14319;49.422;10.934;2022-12-18T10:46:30;-1.10;73.40
26707;DHT22;14319;49.422;10.934;2022-12-18T10:48:33;-1.10;73.70
26707;DHT22;14319;49.422;10.934;2022-12-18T10:50:35;-1.20;73.20
26707;DHT22;14319;49.422;10.934;2022-12-18T10:52:36;-1.20;74.20
26707;DHT22;14319;49.422;10.934;2022-12-18T10:54:37;-1.20;74.60
26707;DHT22;14319;49.422;10.934;2022-12-18T10:56:38;-1.20;74.60
26707;DHT22;14319;49.422;10.934;2022-12-18T10:58:39;-1.20;74.60
26707;DHT22;14319;49.422;10.934;2022-12-18T11:00:39;-1.20;74.60
26707;DHT22;14319;49.422;10.934;2022-12-18T11:02:40;-1.20;74.40
26707;DHT22;14319;49.422;10.934;2022-12-18T11:04:49;-1.20;73.60
26707;DHT22;14319;49.422;10.934;2022-12-18T11:06:54;-1.20;74.00
26707;DHT22;14319;49.422;10.934;2022-12-18T11:09:05;-1.20;73.60
26707;DHT22;14319;49.422;10.934;2022-12-18T11:11:07;-1.30;74.40
26707;DHT22;14319;49.422;10.934;2022-12-18T11:13:18;-1.20;74.70
26707;DHT22;14319;49.422;10.934;2022-12-18T11:15:26;-1.20;73.80
26707;DHT22;14319;49.422;10.934;2022-12-18T11:17:29;-1.30;74.20
26707;DHT22;14319;49.422;10.934;2022-12-18T11:19:34;-1.30;74.60
26707;DHT22;14319;49.422;10.934;2022-12-18T11:21:39;-1.30;74.70
26707;DHT22;14319;49.422;10.934;2022-12-18T11:23:57;-1.30;75.00
26707;DHT22;14319;49.422;10.934;2022-12-18T11:25:59;-1.20;74.50
26707;DHT22;14319;49.422;10.934;2022-12-18T11:28:01;-1.20;74.50
26707;DHT22;14319;49.422;10.934;2022-12-18T11:32:24;-1.20;73.80
26707;DHT22;14319;49.422;10.934;2022-12-18T11:34:28;-1.20;74.50
26707;DHT22;14319;49.422;10.934;2022-12-18T11:36:31;-1.10;73.90
26707;DHT22;14319;49.422;10.934;2022-12-18T11:38:37;-1.20;73.90
26707;DHT22;14319;49.422;10.934;2022-12-18T11:40:38;-1.10;74.10
26707;DHT22;14319;49.422;10.934;2022-12-18T11:46:48;-1.30;73.30
26707;DHT22;14319;49.422;10.934;2022-12-18T11:49:01;-1.30;73.90
26707;DHT22;14319;49.422;10.934;2022-12-18T11:51:04;-1.30;74.10
26707;DHT22;14319;49.422;10.934;2022-12-18T11:53:09;-1.30;74.10
26707;DHT22;14319;49.422;10.934;2022-12-18T12:01:46;-1.40;74.30
26707;DHT22;14319;49.422;10.934;2022-12-18T12:04:01;-1.40;74.10
26707;DHT22;14319;49.422;10.934;2022-12-18T12:06:10;-1.50;75.00
26707;DHT22;14319;49.422;10.934;2022-12-18T12:10:39;-1.50;73.60
26707;DHT22;14319;49.422;10.934;2022-12-18T12:12:49;-1.50;74.10
26707;DHT22;14319;49.422;10.934;2022-12-18T12:16:57;-1.60;73.70
26707;DHT22;14319;49.422;10.934;2022-12-18T12:19:07;-1.60;74.40
26707;DHT22;14319;49.422;10.934;2022-12-18T12:21:16;-1.50;74.60
26707;DHT22;14319;49.422;10.934;2022-12-18T12:23:40;-1.60;74.10
26707;DHT22;14319;49.422;10.934;2022-12-18T12:25:51;-1.60;74.20
26707;DHT22;14319;49.422;10.934;2022-12-18T12:28:09;-1.50;74.10
26707;DHT22;14319;49.422;10.934;2022-12-18T12:30:20;-1.60;74.20
26707;DHT22;14319;49.422;10.934;2022-12-18T12:32:29;-1.60;74.50
26707;DHT22;14319;49.422;10.934;2022-12-18T12:39:11;-1.60;74.00
26707;DHT22;14319;49.422;10.934;2022-12-18T12:41:14;-1.70;74.10
26707;DHT22;14319;49.422;10.934;2022-12-18T12:43:38;-1.60;74.60
26707;DHT22;14319;49.422;10.934;2022-12-18T12:45:49;-1.70;74.60
26707;DHT22;14319;49.422;10.934;2022-12-18T12:47:51;-1.80;74.30
26707;DHT22;14319;49.422;10.934;2022-12-18T12:49:52;-1.60;74.80
26707;DHT22;14319;49.422;10.934;2022-12-18T12:52:00;-1.60;74.40
26707;DHT22;14319;49.422;10.934;2022-12-18T12:54:04;-1.60;74.10
26707;DHT22;14319;49.422;10.934;2022-12-18T12:56:06;-1.60;74.60
26707;DHT22;14319;49.422;10.934;2022-12-18T12:58:14;-1.60;74.50
26707;DHT22;14319;49.422;10.934;2022-12-18T13:00:15;-1.60;74.30
26707;DHT22;14319;49.422;10.934;2022-12-18T13:02:18;-1.50;74.80
26707;DHT22;14319;49.422;10.934;2022-12-18T13:06:36;-1.50;74.60
26707;DHT22;14319;49.422;10.934;2022-12-18T13:08:53;-1.50;74.10
26707;DHT22;14319;49.422;10.934;2022-12-18T13:10:55;-1.50;74.30
26707;DHT22;14319;49.422;10.934;2022-12-18T13:13:14;-1.40;74.30
26707;DHT22;14319;49.422;10.934;2022-12-18T13:15:20;-1.50;75.20
26707;DHT22;14319;49.422;10.934;2022-12-18T13:19:22;-1.40;74.40
26707;DHT22;14319;49.422;10.934;2022-12-18T13:21:30;-1.40;74.00
26707;DHT22;14319;49.422;10.934;2022-12-18T13:23:35;-1.40;73.40
26707;DHT22;14319;49.422;10.934;2022-12-18T13:25:39;-1.40;73.70
26707;DHT22;14319;49.422;10.934;2022-12-18T13:29:44;-1.40;73.60
26707;DHT22;14319;49.422;10.934;2022-12-18T13:31:57;-1.40;73.90
26707;DHT22;14319;49.422;10.934;2022-12-18T13:34:18;-1.40;74.00
26707;DHT22;14319;49.422;10.934;2022-12-18T13:42:41;-1.40;74.10
26707;DHT22;14319;49.422;10.934;2022-12-18T13:45:00;-1.40;73.80
26707;DHT22;14319;49.422;10.934;2022-12-18T13:47:01;-1.40;74.00
26707;DHT22;14319;49.422;10.934;2022-12-18T13:51:12;-1.50;74.70
26707;DHT22;14319;49.422;10.934;2022-12-18T13:53:20;-1.40;74.30